sensor_id;sensor_type;location;lat;lon;timestamp;P1;durP1;ratioP1;P2;durP2;ratioP2
47912;SDS011;33676;51.006;17.180;2022-10-15T00:01:45;24.70;;;19.20;;
47912;SDS011;33676;51.006;17.180;2022-10-15T00:04:13;23.20;;;19.90;;
47912;SDS011;33676;51.006;17.180;2022-10-15T00:06:41;25.20;;;21.70;;
47912;SDS011;33676;51.006;17.180;2022-10-15T00:09:10;22.40;;;19.00;;
47912;SDS011;33676;51.006;17.180;2022-10-15T00:11:38;25.00;;;20.00;;
47912;SDS011;33676;51.006;17.180;2022-10-15T00:14:07;25.40;;;22.20;;
47912;SDS011;33676;51.006;17.180;2022-10-15T00:16:35;27.00;;;22.00;;
47912;SDS011;33676;51.006;17.180;2022-10-15T00:19:04;33.60;;;24.60;;
47912;SDS011;33676;51.006;17.180;2022-10-15T00:21:32;29.70;;;24.90;;
47912;SDS011;33676;51.006;17.180;2022-10-15T00:24:00;33.70;;;26.60;;
47912;SDS011;33676;51.006;17.180;2022-10-15T00:26:29;30.90;;;24.40;;
47912;SDS011;33676;51.006;17.180;2022-10-15T00:29:00;28.90;;;22.90;;
47912;SDS011;33676;51.006;17.180;2022-10-15T00:31:30;29.70;;;24.80;;
47912;SDS011;33676;51.006;17.180;2022-10-15T00:34:00;31.40;;;25.20;;
47912;SDS011;33676;51.006;17.180;2022-10-15T00:36:32;30.50;;;24.20;;
47912;SDS011;33676;51.006;17.180;2022-10-15T00:39:06;31.70;;;25.10;;
47912;SDS011;33676;51.006;17.180;2022-10-15T00:41:42;30.80;;;24.80;;
47912;SDS011;33676;51.006;17.180;2022-10-15T00:46:51;29.50;;;24.50;;
47912;SDS011;33676;51.006;17.180;2022-10-15T00:49:32;33.30;;;24.60;;
47912;SDS011;33676;51.006;17.180;2022-10-15T00:52:20;32.60;;;24.80;;
47912;SDS011;33676;51.006;17.180;2022-10-15T00:57:26;27.90;;;23.40;;
47912;SDS011;33676;51.006;17.180;2022-10-15T00:59:56;29.30;;;23.40;;
47912;SDS011;33676;51.006;17.180;2022-10-15T01:02:29;28.30;;;25.30;;
47912;SDS011;33676;51.006;17.180;2022-10-15T01:04:57;29.70;;;25.00;;
47912;SDS011;33676;51.006;17.180;2022-10-15T01:07:25;26.40;;;22.40;;
47912;SDS011;33676;51.006;17.180;2022-10-15T01:09:53;26.90;;;23.10;;
47912;SDS011;33676;51.006;17.180;2022-10-15T01:15:32;23.90;;;20.60;;
47912;SDS011;33676;51.006;17.180;2022-10-15T01:18:18;23.10;;;20.60;;
47912;SDS011;33676;51.006;17.180;2022-10-15T01:21:08;23.60;;;20.00;;
47912;SDS011;33676;51.006;17.180;2022-10-15T01:27:21;24.10;;;21.20;;
47912;SDS011;33676;51.006;17.180;2022-10-15T01:32:58;23.30;;;20.70;;
47912;SDS011;33676;51.006;17.180;2022-10-15T01:35:44;23.70;;;20.40;;
47912;SDS011;33676;51.006;17.180;2022-10-15T01:38:24;24.20;;;20.20;;
47912;SDS011;33676;51.006;17.180;2022-10-15T01:41:08;23.80;;;21.30;;
47912;SDS011;33676;51.006;17.180;2022-10-15T01:46:52;22.30;;;19.90;;
47912;SDS011;33676;51.006;17.180;2022-10-15T01:49:28;23.60;;;18.80;;
47912;SDS011;33676;51.006;17.180;2022-10-15T01:52:06;22.60;;;20.10;;
47912;SDS011;33676;51.006;17.180;2022-10-15T01:54:39;29.10;;;19.60;;
47912;SDS011;33676;51.006;17.180;2022-10-15T01:57:08;22.40;;;19.60;;
47912;SDS011;33676;51.006;17.180;2022-10-15T01:59:39;22.60;;;20.00;;
47912;SDS011;33676;51.006;17.180;2022-10-15T02:02:10;21.50;;;19.30;;
47912;SDS011;33676;51.006;17.180;2022-10-15T02:04:39;24.80;;;20.40;;
47912;SDS011;33676;51.006;17.180;2022-10-15T02:10:28;35.10;;;25.90;;
47912;SDS011;33676;51.006;17.180;2022-10-15T02:22:14;31.80;;;26.70;;
47912;SDS011;33676;51.006;17.180;2022-10-15T02:24:51;33.60;;;27.50;;
47912;SDS011;33676;51.006;17.180;2022-10-15T02:27:25;32.40;;;25.80;;
47912;SDS011;33676;51.006;17.180;2022-10-15T02:29:55;31.40;;;26.20;;
47912;SDS011;33676;51.006;17.180;2022-10-15T02:32:25;30.90;;;24.40;;
47912;SDS011;33676;51.006;17.180;2022-10-15T02:34:55;28.00;;;24.90;;
47912;SDS011;33676;51.006;17.180;2022-10-15T02:37:25;30.80;;;25.70;;
47912;SDS011;33676;51.006;17.180;2022-10-15T02:39:55;30.50;;;24.60;;
47912;SDS011;33676;51.006;17.180;2022-10-15T02:42:24;31.20;;;25.50;;
47912;SDS011;33676;51.006;17.180;2022-10-15T02:44:53;28.40;;;23.30;;
47912;SDS011;33676;51.006;17.180;2022-10-15T02:47:21;33.90;;;24.60;;
47912;SDS011;33676;51.006;17.180;2022-10-15T02:49:50;29.20;;;25.00;;
47912;SDS011;33676;51.006;17.180;2022-10-15T02:52:18;31.20;;;24.90;;
47912;SDS011;33676;51.006;17.180;2022-10-15T02:54:46;33.00;;;27.00;;
47912;SDS011;33676;51.006;17.180;2022-10-15T02:57:14;33.60;;;27.80;;
47912;SDS011;33676;51.006;17.180;2022-10-15T02:59:43;55.60;;;26.60;;
47912;SDS011;33676;51.006;17.180;2022-10-15T03:02:11;35.90;;;26.60;;
47912;SDS011;33676;51.006;17.180;2022-10-15T03:04:45;31.10;;;25.70;;
47912;SDS011;33676;51.006;17.180;2022-10-15T03:07:13;30.00;;;23.60;;
47912;SDS011;33676;51.006;17.180;2022-10-15T03:09:42;25.80;;;22.90;;
47912;SDS011;33676;51.006;17.180;2022-10-15T03:12:10;26.20;;;23.40;;
47912;SDS011;33676;51.006;17.180;2022-10-15T03:14:38;29.40;;;24.30;;
47912;SDS011;33676;51.006;17.180;2022-10-15T03:17:06;31.90;;;25.80;;
47912;SDS011;33676;51.006;17.180;2022-10-15T03:19:35;33.60;;;26.40;;
47912;SDS011;33676;51.006;17.180;2022-10-15T03:22:03;32.00;;;26.80;;
47912;SDS011;33676;51.006;17.180;2022-10-15T03:24:31;31.50;;;26.40;;
47912;SDS011;33676;51.006;17.180;2022-10-15T03:26:59;29.50;;;26.30;;
47912;SDS011;33676;51.006;17.180;2022-10-15T03:29:27;33.40;;;27.40;;
47912;SDS011;33676;51.006;17.180;2022-10-15T03:31:56;31.10;;;26.60;;
47912;SDS011;33676;51.006;17.180;2022-10-15T03:34:24;29.10;;;25.50;;
47912;SDS011;33676;51.006;17.180;2022-10-15T03:36:52;32.60;;;27.50;;
47912;SDS011;33676;51.006;17.180;2022-10-15T03:39:20;29.80;;;26.30;;
47912;SDS011;33676;51.006;17.180;2022-10-15T03:41:51;31.60;;;27.50;;
47912;SDS011;33676;51.006;17.180;2022-10-15T03:44:20;40.00;;;28.70;;
47912;SDS011;33676;51.006;17.180;2022-10-15T03:46:49;32.80;;;26.10;;
47912;SDS011;33676;51.006;17.180;2022-10-15T03:49:17;32.70;;;27.60;;
47912;SDS011;33676;51.006;17.180;2022-10-15T03:51:45;34.40;;;27.10;;
47912;SDS011;33676;51.006;17.180;2022-10-15T03:54:13;31.80;;;25.20;;
47912;SDS011;33676;51.006;17.180;2022-10-15T03:56:41;27.60;;;24.00;;
47912;SDS011;33676;51.006;17.180;2022-10-15T03:59:10;35.80;;;26.20;;
47912;SDS011;33676;51.006;17.180;2022-10-15T04:01:38;26.30;;;23.20;;
47912;SDS011;33676;51.006;17.180;2022-10-15T04:04:06;31.30;;;25.70;;
47912;SDS011;33676;51.006;17.180;2022-10-15T04:06:35;27.90;;;24.40;;
47912;SDS011;33676;51.006;17.180;2022-10-15T04:09:03;31.00;;;24.80;;
47912;SDS011;33676;51.006;17.180;2022-10-15T04:11:32;27.80;;;24.40;;
47912;SDS011;33676;51.006;17.180;2022-10-15T04:14:00;28.00;;;24.80;;
47912;SDS011;33676;51.006;17.180;2022-10-15T04:16:28;31.10;;;26.20;;
47912;SDS011;33676;51.006;17.180;2022-10-15T04:18:57;30.20;;;23.70;;
47912;SDS011;33676;51.006;17.180;2022-10-15T04:21:25;32.60;;;26.30;;
47912;SDS011;33676;51.006;17.180;2022-10-15T04:23:54;29.20;;;23.10;;
47912;SDS011;33676;51.006;17.180;2022-10-15T04:26:22;28.00;;;24.00;;
47912;SDS011;33676;51.006;17.180;2022-10-15T04:28:50;31.00;;;24.00;;
47912;SDS011;33676;51.006;17.180;2022-10-15T04:31:18;29.70;;;24.40;;
47912;SDS011;33676;51.006;17.180;2022-10-15T04:33:47;31.40;;;25.50;;
47912;SDS011;33676;51.006;17.180;2022-10-15T04:36:16;25.00;;;22.40;;
47912;SDS011;33676;51.006;17.180;2022-10-15T04:38:49;27.10;;;22.50;;
47912;SDS011;33676;51.006;17.180;2022-10-15T04:41:17;26.30;;;22.90;;
47912;SDS011;33676;51.006;17.180;2022-10-15T04:43:46;29.50;;;22.80;;
47912;SDS011;33676;51.006;17.180;2022-10-15T04:46:14;28.10;;;24.40;;
47912;SDS011;33676;51.006;17.180;2022-10-15T04:48:42;31.70;;;26.40;;
47912;SDS011;33676;51.006;17.180;2022-10-15T04:51:12;31.60;;;25.10;;
47912;SDS011;33676;51.006;17.180;2022-10-15T04:53:41;30.40;;;24.60;;
47912;SDS011;33676;51.006;17.180;2022-10-15T04:56:12;29.00;;;25.80;;
47912;SDS011;33676;51.006;17.180;2022-10-15T04:58:45;27.50;;;23.00;;
47912;SDS011;33676;51.006;17.180;2022-10-15T05:01:18;29.80;;;24.70;;
47912;SDS011;33676;51.006;17.180;2022-10-15T05:03:48;32.90;;;26.20;;
47912;SDS011;33676;51.006;17.180;2022-10-15T05:06:20;31.40;;;24.70;;
47912;SDS011;33676;51.006;17.180;2022-10-15T05:08:49;34.00;;;26.00;;
47912;SDS011;33676;51.006;17.180;2022-10-15T05:11:23;26.90;;;22.40;;
47912;SDS011;33676;51.006;17.180;2022-10-15T05:13:54;31.00;;;22.50;;
47912;SDS011;33676;51.006;17.180;2022-10-15T05:16:25;33.30;;;24.90;;
47912;SDS011;33676;51.006;17.180;2022-10-15T05:19:13;28.80;;;22.40;;
47912;SDS011;33676;51.006;17.180;2022-10-15T05:21:43;30.40;;;22.80;;
47912;SDS011;33676;51.006;17.180;2022-10-15T05:24:12;28.40;;;21.10;;
47912;SDS011;33676;51.006;17.180;2022-10-15T05:26:40;24.50;;;18.80;;
47912;SDS011;33676;51.006;17.180;2022-10-15T05:29:08;26.20;;;20.50;;
47912;SDS011;33676;51.006;17.180;2022-10-15T05:31:36;27.10;;;22.90;;
47912;SDS011;33676;51.006;17.180;2022-10-15T05:34:06;36.40;;;24.60;;
47912;SDS011;33676;51.006;17.180;2022-10-15T05:36:35;30.50;;;26.30;;
47912;SDS011;33676;51.006;17.180;2022-10-15T05:39:04;30.50;;;25.20;;
47912;SDS011;33676;51.006;17.180;2022-10-15T05:41:37;31.00;;;25.10;;
47912;SDS011;33676;51.006;17.180;2022-10-15T05:44:05;28.60;;;23.20;;
47912;SDS011;33676;51.006;17.180;2022-10-15T05:46:33;27.70;;;24.30;;
47912;SDS011;33676;51.006;17.180;2022-10-15T05:49:02;30.40;;;25.10;;
47912;SDS011;33676;51.006;17.180;2022-10-15T05:51:30;30.20;;;22.90;;
47912;SDS011;33676;51.006;17.180;2022-10-15T05:53:58;27.30;;;20.60;;
47912;SDS011;33676;51.006;17.180;2022-10-15T05:56:26;26.00;;;22.70;;
47912;SDS011;33676;51.006;17.180;2022-10-15T05:58:55;29.80;;;23.70;;
47912;SDS011;33676;51.006;17.180;2022-10-15T06:01:24;31.10;;;24.30;;
47912;SDS011;33676;51.006;17.180;2022-10-15T06:03:52;27.20;;;22.30;;
47912;SDS011;33676;51.006;17.180;2022-10-15T06:06:23;29.30;;;23.90;;
47912;SDS011;33676;51.006;17.180;2022-10-15T06:08:53;27.00;;;22.40;;
47912;SDS011;33676;51.006;17.180;2022-10-15T06:11:22;29.30;;;23.00;;
47912;SDS011;33676;51.006;17.180;2022-10-15T06:13:50;30.30;;;24.80;;
47912;SDS011;33676;51.006;17.180;2022-10-15T06:16:19;28.70;;;23.20;;
47912;SDS011;33676;51.006;17.180;2022-10-15T06:18:51;31.90;;;24.70;;
47912;SDS011;33676;51.006;17.180;2022-10-15T06:21:20;29.70;;;22.00;;
47912;SDS011;33676;51.006;17.180;2022-10-15T06:23:49;29.90;;;25.20;;
47912;SDS011;33676;51.006;17.180;2022-10-15T06:26:17;29.70;;;24.50;;
47912;SDS011;33676;51.006;17.180;2022-10-15T06:28:45;34.10;;;25.10;;
47912;SDS011;33676;51.006;17.180;2022-10-15T06:31:14;28.90;;;23.10;;
47912;SDS011;33676;51.006;17.180;2022-10-15T06:33:42;28.60;;;22.40;;
47912;SDS011;33676;51.006;17.180;2022-10-15T06:36:10;30.20;;;23.90;;
47912;SDS011;33676;51.006;17.180;2022-10-15T06:38:40;31.10;;;24.00;;
47912;SDS011;33676;51.006;17.180;2022-10-15T06:41:11;26.90;;;23.70;;
47912;SDS011;33676;51.006;17.180;2022-10-15T06:43:39;30.20;;;24.20;;
47912;SDS011;33676;51.006;17.180;2022-10-15T06:46:09;27.30;;;22.60;;
47912;SDS011;33676;51.006;17.180;2022-10-15T06:48:38;31.70;;;24.80;;
47912;SDS011;33676;51.006;17.180;2022-10-15T06:51:06;29.40;;;25.90;;
47912;SDS011;33676;51.006;17.180;2022-10-15T06:53:36;31.40;;;25.10;;
47912;SDS011;33676;51.006;17.180;2022-10-15T06:56:07;32.00;;;25.60;;
47912;SDS011;33676;51.006;17.180;2022-10-15T06:58:35;36.50;;;26.50;;
47912;SDS011;33676;51.006;17.180;2022-10-15T07:01:05;36.40;;;26.00;;
47912;SDS011;33676;51.006;17.180;2022-10-15T07:03:33;31.40;;;26.40;;
47912;SDS011;33676;51.006;17.180;2022-10-15T07:06:04;35.50;;;27.40;;
47912;SDS011;33676;51.006;17.180;2022-10-15T07:08:34;36.70;;;31.60;;
47912;SDS011;33676;51.006;17.180;2022-10-15T07:11:04;32.60;;;26.60;;
47912;SDS011;33676;51.006;17.180;2022-10-15T07:13:36;30.40;;;25.70;;
47912;SDS011;33676;51.006;17.180;2022-10-15T07:16:07;31.60;;;27.70;;
47912;SDS011;33676;51.006;17.180;2022-10-15T07:18:37;34.00;;;28.20;;
47912;SDS011;33676;51.006;17.180;2022-10-15T07:21:07;33.20;;;27.50;;
47912;SDS011;33676;51.006;17.180;2022-10-15T07:23:41;33.20;;;28.40;;
47912;SDS011;33676;51.006;17.180;2022-10-15T07:26:09;31.50;;;27.10;;
47912;SDS011;33676;51.006;17.180;2022-10-15T07:28:37;34.90;;;28.70;;
47912;SDS011;33676;51.006;17.180;2022-10-15T07:31:06;36.00;;;27.90;;
47912;SDS011;33676;51.006;17.180;2022-10-15T07:33:35;30.40;;;26.60;;
47912;SDS011;33676;51.006;17.180;2022-10-15T07:36:05;31.40;;;26.80;;
47912;SDS011;33676;51.006;17.180;2022-10-15T07:38:35;30.40;;;26.70;;
47912;SDS011;33676;51.006;17.180;2022-10-15T07:41:04;29.90;;;26.10;;
47912;SDS011;33676;51.006;17.180;2022-10-15T07:43:35;30.90;;;26.60;;
47912;SDS011;33676;51.006;17.180;2022-10-15T07:46:04;33.80;;;28.00;;
47912;SDS011;33676;51.006;17.180;2022-10-15T07:48:33;32.00;;;27.30;;
47912;SDS011;33676;51.006;17.180;2022-10-15T07:51:04;29.10;;;25.90;;
47912;SDS011;33676;51.006;17.180;2022-10-15T07:53:34;31.90;;;28.50;;
47912;SDS011;33676;51.006;17.180;2022-10-15T07:56:08;34.10;;;30.60;;
47912;SDS011;33676;51.006;17.180;2022-10-15T07:58:39;32.50;;;27.60;;
47912;SDS011;33676;51.006;17.180;2022-10-15T08:01:09;33.10;;;29.50;;
47912;SDS011;33676;51.006;17.180;2022-10-15T08:03:38;30.20;;;27.20;;
47912;SDS011;33676;51.006;17.180;2022-10-15T08:06:06;31.60;;;28.00;;
47912;SDS011;33676;51.006;17.180;2022-10-15T08:08:35;33.10;;;27.60;;
47912;SDS011;33676;51.006;17.180;2022-10-15T08:11:10;30.40;;;27.20;;
47912;SDS011;33676;51.006;17.180;2022-10-15T08:13:40;30.50;;;27.20;;
47912;SDS011;33676;51.006;17.180;2022-10-15T08:16:11;36.30;;;28.10;;
47912;SDS011;33676;51.006;17.180;2022-10-15T08:18:41;29.00;;;26.00;;
47912;SDS011;33676;51.006;17.180;2022-10-15T08:21:10;37.00;;;31.60;;
47912;SDS011;33676;51.006;17.180;2022-10-15T08:23:39;53.50;;;42.70;;
47912;SDS011;33676;51.006;17.180;2022-10-15T08:26:07;31.90;;;28.50;;
47912;SDS011;33676;51.006;17.180;2022-10-15T08:28:36;33.00;;;29.30;;
47912;SDS011;33676;51.006;17.180;2022-10-15T08:31:04;31.60;;;28.20;;
47912;SDS011;33676;51.006;17.180;2022-10-15T08:33:34;29.30;;;26.10;;
47912;SDS011;33676;51.006;17.180;2022-10-15T08:36:04;28.50;;;25.50;;
47912;SDS011;33676;51.006;17.180;2022-10-15T08:38:34;27.80;;;24.80;;
47912;SDS011;33676;51.006;17.180;2022-10-15T08:41:05;26.50;;;23.30;;
47912;SDS011;33676;51.006;17.180;2022-10-15T08:43:46;29.30;;;26.30;;
47912;SDS011;33676;51.006;17.180;2022-10-15T08:46:19;26.30;;;23.60;;
47912;SDS011;33676;51.006;17.180;2022-10-15T08:48:53;27.60;;;24.10;;
47912;SDS011;33676;51.006;17.180;2022-10-15T08:51:25;25.00;;;21.80;;
47912;SDS011;33676;51.006;17.180;2022-10-15T08:54:00;27.80;;;23.40;;
47912;SDS011;33676;51.006;17.180;2022-10-15T08:56:39;22.90;;;20.60;;
47912;SDS011;33676;51.006;17.180;2022-10-15T09:02:03;26.00;;;23.10;;
47912;SDS011;33676;51.006;17.180;2022-10-15T09:04:52;24.00;;;21.20;;
47912;SDS011;33676;51.006;17.180;2022-10-15T09:08:23;26.90;;;24.20;;
47912;SDS011;33676;51.006;17.180;2022-10-15T09:16:21;24.90;;;22.30;;
47912;SDS011;33676;51.006;17.180;2022-10-15T09:19:02;24.40;;;22.00;;
47912;SDS011;33676;51.006;17.180;2022-10-15T09:21:33;25.70;;;22.60;;
47912;SDS011;33676;51.006;17.180;2022-10-15T09:24:03;23.70;;;21.30;;
47912;SDS011;33676;51.006;17.180;2022-10-15T09:29:47;23.80;;;21.30;;
47912;SDS011;33676;51.006;17.180;2022-10-15T09:32:58;23.40;;;21.00;;
47912;SDS011;33676;51.006;17.180;2022-10-15T09:39:04;24.30;;;21.80;;
47912;SDS011;33676;51.006;17.180;2022-10-15T09:45:13;25.20;;;22.70;;
47912;SDS011;33676;51.006;17.180;2022-10-15T09:47:43;24.60;;;21.30;;
47912;SDS011;33676;51.006;17.180;2022-10-15T09:50:13;26.30;;;23.40;;
47912;SDS011;33676;51.006;17.180;2022-10-15T09:55:44;21.70;;;19.50;;
47912;SDS011;33676;51.006;17.180;2022-10-15T09:58:24;23.10;;;20.70;;
47912;SDS011;33676;51.006;17.180;2022-10-15T10:01:01;24.80;;;22.30;;
47912;SDS011;33676;51.006;17.180;2022-10-15T10:03:33;22.00;;;20.00;;
47912;SDS011;33676;51.006;17.180;2022-10-15T10:06:05;22.00;;;19.80;;
47912;SDS011;33676;51.006;17.180;2022-10-15T10:09:03;20.80;;;18.80;;
47912;SDS011;33676;51.006;17.180;2022-10-15T10:11:48;20.10;;;18.20;;
47912;SDS011;33676;51.006;17.180;2022-10-15T10:17:14;18.30;;;16.50;;
47912;SDS011;33676;51.006;17.180;2022-10-15T10:27:58;16.40;;;14.90;;
47912;SDS011;33676;51.006;17.180;2022-10-15T10:31:17;15.70;;;14.20;;
47912;SDS011;33676;51.006;17.180;2022-10-15T10:33:30;14.90;;;13.40;;
47912;SDS011;33676;51.006;17.180;2022-10-15T10:36:04;13.80;;;12.60;;
47912;SDS011;33676;51.006;17.180;2022-10-15T10:38:36;14.90;;;13.50;;
47912;SDS011;33676;51.006;17.180;2022-10-15T10:41:10;14.00;;;12.80;;
47912;SDS011;33676;51.006;17.180;2022-10-15T10:43:54;14.50;;;13.10;;
47912;SDS011;33676;51.006;17.180;2022-10-15T10:46:23;14.40;;;13.10;;
47912;SDS011;33676;51.006;17.180;2022-10-15T10:48:53;13.60;;;12.50;;
47912;SDS011;33676;51.006;17.180;2022-10-15T10:51:25;18.20;;;16.30;;
47912;SDS011;33676;51.006;17.180;2022-10-15T10:54:02;14.20;;;12.90;;
47912;SDS011;33676;51.006;17.180;2022-10-15T10:56:39;12.70;;;11.60;;
47912;SDS011;33676;51.006;17.180;2022-10-15T10:59:18;13.10;;;11.90;;
47912;SDS011;33676;51.006;17.180;2022-10-15T11:01:51;13.70;;;12.50;;
47912;SDS011;33676;51.006;17.180;2022-10-15T11:04:31;13.40;;;12.10;;
47912;SDS011;33676;51.006;17.180;2022-10-15T11:16:28;12.80;;;11.60;;
47912;SDS011;33676;51.006;17.180;2022-10-15T11:19:28;13.10;;;11.90;;
47912;SDS011;33676;51.006;17.180;2022-10-15T11:22:42;12.00;;;11.00;;
47912;SDS011;33676;51.006;17.180;2022-10-15T11:25:51;13.60;;;12.30;;
47912;SDS011;33676;51.006;17.180;2022-10-15T11:38:22;13.80;;;12.60;;
47912;SDS011;33676;51.006;17.180;2022-10-15T11:44:22;17.10;;;15.50;;
47912;SDS011;33676;51.006;17.180;2022-10-15T11:50:27;18.10;;;16.50;;
47912;SDS011;33676;51.006;17.180;2022-10-15T11:56:27;15.90;;;14.50;;
47912;SDS011;33676;51.006;17.180;2022-10-15T12:01:40;16.10;;;14.60;;
47912;SDS011;33676;51.006;17.180;2022-10-15T12:04:23;16.30;;;14.80;;
47912;SDS011;33676;51.006;17.180;2022-10-15T12:07:02;16.40;;;14.80;;
47912;SDS011;33676;51.006;17.180;2022-10-15T12:09:37;17.20;;;15.50;;
47912;SDS011;33676;51.006;17.180;2022-10-15T12:18:41;18.30;;;16.60;;
47912;SDS011;33676;51.006;17.180;2022-10-15T12:29:52;18.80;;;16.90;;
47912;SDS011;33676;51.006;17.180;2022-10-15T12:32:44;18.50;;;16.70;;
47912;SDS011;33676;51.006;17.180;2022-10-15T12:37:45;19.40;;;17.50;;
47912;SDS011;33676;51.006;17.180;2022-10-15T12:42:56;18.70;;;16.80;;
47912;SDS011;33676;51.006;17.180;2022-10-15T12:45:33;17.80;;;16.20;;
47912;SDS011;33676;51.006;17.180;2022-10-15T12:50:36;20.40;;;18.60;;
47912;SDS011;33676;51.006;17.180;2022-10-15T12:53:27;19.80;;;17.90;;
47912;SDS011;33676;51.006;17.180;2022-10-15T12:58:48;19.80;;;18.10;;
47912;SDS011;33676;51.006;17.180;2022-10-15T13:11:43;21.40;;;19.30;;
47912;SDS011;33676;51.006;17.180;2022-10-15T13:14:20;23.20;;;21.20;;
47912;SDS011;33676;51.006;17.180;2022-10-15T13:17:19;22.20;;;20.10;;
47912;SDS011;33676;51.006;17.180;2022-10-15T13:19:59;22.30;;;20.20;;
47912;SDS011;33676;51.006;17.180;2022-10-15T13:22:33;22.80;;;20.40;;
47912;SDS011;33676;51.006;17.180;2022-10-15T13:25:03;24.70;;;22.30;;
47912;SDS011;33676;51.006;17.180;2022-10-15T13:27:42;22.50;;;20.40;;
47912;SDS011;33676;51.006;17.180;2022-10-15T13:30:13;25.30;;;22.00;;
47912;SDS011;33676;51.006;17.180;2022-10-15T13:32:54;23.30;;;21.00;;
47912;SDS011;33676;51.006;17.180;2022-10-15T13:35:26;32.50;;;29.10;;
47912;SDS011;33676;51.006;17.180;2022-10-15T13:37:59;22.40;;;20.30;;
47912;SDS011;33676;51.006;17.180;2022-10-15T13:40:30;23.70;;;21.60;;
47912;SDS011;33676;51.006;17.180;2022-10-15T13:43:04;21.60;;;19.50;;
47912;SDS011;33676;51.006;17.180;2022-10-15T13:45:46;21.10;;;19.10;;
47912;SDS011;33676;51.006;17.180;2022-10-15T13:48:24;20.90;;;19.10;;
47912;SDS011;33676;51.006;17.180;2022-10-15T13:51:01;22.60;;;20.40;;
47912;SDS011;33676;51.006;17.180;2022-10-15T13:53:34;23.10;;;21.00;;
47912;SDS011;33676;51.006;17.180;2022-10-15T13:56:25;24.30;;;22.00;;
47912;SDS011;33676;51.006;17.180;2022-10-15T13:58:55;25.60;;;23.30;;
47912;SDS011;33676;51.006;17.180;2022-10-15T14:01:26;24.60;;;22.20;;
47912;SDS011;33676;51.006;17.180;2022-10-15T14:03:57;24.30;;;21.70;;
47912;SDS011;33676;51.006;17.180;2022-10-15T14:06:28;24.50;;;22.20;;
47912;SDS011;33676;51.006;17.180;2022-10-15T14:11:40;23.80;;;21.50;;
47912;SDS011;33676;51.006;17.180;2022-10-15T14:14:49;25.70;;;23.10;;
47912;SDS011;33676;51.006;17.180;2022-10-15T14:19:50;25.60;;;23.00;;
47912;SDS011;33676;51.006;17.180;2022-10-15T14:22:41;26.40;;;23.90;;
47912;SDS011;33676;51.006;17.180;2022-10-15T14:25:09;26.00;;;23.50;;
47912;SDS011;33676;51.006;17.180;2022-10-15T14:27:44;27.20;;;24.40;;
47912;SDS011;33676;51.006;17.180;2022-10-15T14:30:17;28.70;;;25.90;;
47912;SDS011;33676;51.006;17.180;2022-10-15T14:33:40;27.60;;;24.70;;
47912;SDS011;33676;51.006;17.180;2022-10-15T14:38:49;27.90;;;25.10;;
47912;SDS011;33676;51.006;17.180;2022-10-15T14:41:29;27.50;;;24.70;;
47912;SDS011;33676;51.006;17.180;2022-10-15T14:44:00;26.50;;;23.90;;
47912;SDS011;33676;51.006;17.180;2022-10-15T14:46:42;27.70;;;25.00;;
47912;SDS011;33676;51.006;17.180;2022-10-15T14:52:02;28.60;;;25.30;;
47912;SDS011;33676;51.006;17.180;2022-10-15T14:54:37;26.30;;;23.70;;
47912;SDS011;33676;51.006;17.180;2022-10-15T14:57:22;27.60;;;24.80;;
47912;SDS011;33676;51.006;17.180;2022-10-15T14:59:54;26.90;;;24.30;;
47912;SDS011;33676;51.006;17.180;2022-10-15T15:02:25;27.60;;;25.10;;
47912;SDS011;33676;51.006;17.180;2022-10-15T15:05:18;28.40;;;25.30;;
47912;SDS011;33676;51.006;17.180;2022-10-15T15:07:49;29.60;;;25.80;;
47912;SDS011;33676;51.006;17.180;2022-10-15T15:10:18;30.50;;;27.40;;
47912;SDS011;33676;51.006;17.180;2022-10-15T15:12:54;25.30;;;23.00;;
47912;SDS011;33676;51.006;17.180;2022-10-15T15:15:24;26.30;;;23.80;;
47912;SDS011;33676;51.006;17.180;2022-10-15T15:17:54;25.40;;;22.80;;
47912;SDS011;33676;51.006;17.180;2022-10-15T15:20:23;28.70;;;25.90;;
47912;SDS011;33676;51.006;17.180;2022-10-15T15:22:53;27.90;;;25.10;;
47912;SDS011;33676;51.006;17.180;2022-10-15T15:25:30;29.20;;;26.10;;
47912;SDS011;33676;51.006;17.180;2022-10-15T15:28:00;27.10;;;24.30;;
47912;SDS011;33676;51.006;17.180;2022-10-15T15:30:30;26.10;;;23.40;;
47912;SDS011;33676;51.006;17.180;2022-10-15T15:33:01;30.40;;;27.50;;
47912;SDS011;33676;51.006;17.180;2022-10-15T15:35:37;29.40;;;26.30;;
47912;SDS011;33676;51.006;17.180;2022-10-15T15:38:11;30.00;;;27.00;;
47912;SDS011;33676;51.006;17.180;2022-10-15T15:40:40;27.50;;;24.90;;
47912;SDS011;33676;51.006;17.180;2022-10-15T15:43:10;28.90;;;26.10;;
47912;SDS011;33676;51.006;17.180;2022-10-15T15:45:41;29.30;;;26.30;;
47912;SDS011;33676;51.006;17.180;2022-10-15T15:48:09;29.70;;;26.70;;
47912;SDS011;33676;51.006;17.180;2022-10-15T15:50:38;28.30;;;25.40;;
47912;SDS011;33676;51.006;17.180;2022-10-15T15:53:06;28.40;;;25.60;;
47912;SDS011;33676;51.006;17.180;2022-10-15T15:55:38;28.00;;;25.30;;
47912;SDS011;33676;51.006;17.180;2022-10-15T15:58:06;29.00;;;26.20;;
47912;SDS011;33676;51.006;17.180;2022-10-15T16:00:34;27.70;;;25.00;;
47912;SDS011;33676;51.006;17.180;2022-10-15T16:03:03;28.10;;;25.40;;
47912;SDS011;33676;51.006;17.180;2022-10-15T16:05:31;26.80;;;24.10;;
47912;SDS011;33676;51.006;17.180;2022-10-15T16:08:00;31.90;;;24.40;;
47912;SDS011;33676;51.006;17.180;2022-10-15T16:10:29;29.90;;;27.00;;
47912;SDS011;33676;51.006;17.180;2022-10-15T16:13:00;29.70;;;26.50;;
47912;SDS011;33676;51.006;17.180;2022-10-15T16:15:29;31.00;;;27.80;;
47912;SDS011;33676;51.006;17.180;2022-10-15T16:17:57;28.70;;;25.70;;
47912;SDS011;33676;51.006;17.180;2022-10-15T16:20:26;27.00;;;24.20;;
47912;SDS011;33676;51.006;17.180;2022-10-15T16:22:54;29.60;;;26.60;;
47912;SDS011;33676;51.006;17.180;2022-10-15T16:25:23;31.60;;;28.30;;
47912;SDS011;33676;51.006;17.180;2022-10-15T16:27:56;29.60;;;26.00;;
47912;SDS011;33676;51.006;17.180;2022-10-15T16:30:26;29.90;;;27.00;;
47912;SDS011;33676;51.006;17.180;2022-10-15T16:32:55;35.20;;;31.40;;
47912;SDS011;33676;51.006;17.180;2022-10-15T16:35:23;30.40;;;27.50;;
47912;SDS011;33676;51.006;17.180;2022-10-15T16:37:52;32.20;;;28.90;;
47912;SDS011;33676;51.006;17.180;2022-10-15T16:40:23;29.80;;;26.70;;
47912;SDS011;33676;51.006;17.180;2022-10-15T16:42:51;29.90;;;26.80;;
47912;SDS011;33676;51.006;17.180;2022-10-15T16:45:20;35.70;;;27.60;;
47912;SDS011;33676;51.006;17.180;2022-10-15T16:47:48;31.50;;;28.30;;
47912;SDS011;33676;51.006;17.180;2022-10-15T16:50:16;31.20;;;27.90;;
47912;SDS011;33676;51.006;17.180;2022-10-15T16:52:44;26.50;;;23.90;;
47912;SDS011;33676;51.006;17.180;2022-10-15T16:55:13;30.70;;;27.70;;
47912;SDS011;33676;51.006;17.180;2022-10-15T16:57:41;32.60;;;29.10;;
47912;SDS011;33676;51.006;17.180;2022-10-15T17:00:10;33.70;;;30.40;;
47912;SDS011;33676;51.006;17.180;2022-10-15T17:02:38;34.90;;;30.70;;